Frydek, Czech Republic
Current Conditions -  °F | °C
As of 11:00 AM on Thursday 25 Dec 2014 (Local Time) from LKMT Reporting Station
Broken Clouds Broken Clouds  
Wind Chill: 39°   Ceiling: 2000
Heat Index: 39°   Visibility: 6mi
Dew Point: 36°   Wind: 2mph
Humidity: 87%   Direction: 100°E
Pressure: 30.06"   Gusts: NA
Location:  49.68°N, 18.34°E
Report Text: LKMT 250900Z 10002KT 9999 SCT016 BKN020 04/02 Q1018 NOSIG
Loading
Personal Weather Stations






























Interactive Weather Map New forecast layout! Learn more

10-Day Weather Forecast

Advertisements
Track Severe Weather on mobile